Flight Track Log - Related Links

Times and Time Zones

All times are in EDT time to prevent confusion due to time zone crossing. See the ASQ5738 flight status page for this flight to view local times or setup timezone preferences in your user account.

Time Position Orientation Groundspeed Altitude Reporting Facility
EDT Latitude Longitude Course Direction KTS MPH feet Rate Location/Type
Mon 02:31:39 PM 32.9825 -79.9706 17° North 247 284 6,800  Level Jacksonville Center
Mon 02:32:00 PM 33.2729 -79.9221 North  Level FlightAware Approximate
Mon 02:32:39 PM 33.0614 -79.9556 North 269 310 9,400  Level Jacksonville Center
Mon 02:33:00 PM 33.3675 -79.8832 North  Level FlightAware Approximate
Mon 02:33:39 PM 33.1308 -79.8936 37° Northeast 289 333 11,500  Level Jacksonville Center
Mon 02:34:00 PM 33.4665 -79.8620 13° North  Level FlightAware Approximate
Mon 02:34:39 PM 33.2067 -79.8342 33° Northeast 300 345 13,500  Level Jacksonville Center
Mon 02:35:39 PM 33.2953 -79.7889 23° Northeast 319 367 15,200 1,850 Climbing Jacksonville Center
Mon 02:36:39 PM 33.3883 -79.7556 17° North 338 389 17,200 1,700 Climbing Jacksonville Center
Mon 02:37:39 PM 33.4836 -79.7200 17° North 349 402 18,600 1,500 Climbing Jacksonville Center
Mon 02:38:39 PM 33.5931 -79.6786 17° North 360 414 20,200 1,550 Climbing Jacksonville Center
Mon 02:39:39 PM 33.6942 -79.6375 19° North 366 421 21,700 1,300 Climbing Jacksonville Center
Mon 02:40:39 PM 33.7978 -79.6011 16° North 378 435 22,800 1,050 Climbing Jacksonville Center
Mon 02:41:39 PM 33.9031 -79.5597 18° North 378 435 23,800 1,050 Climbing Jacksonville Center
Mon 02:42:39 PM 34.0083 -79.5206 17° North 384 442 24,900 1,050 Climbing Jacksonville Center
Mon 02:43:39 PM 34.1158 -79.4789 18° North 389 448 25,900 700 Climbing Jacksonville Center
Mon 02:45:39 PM 34.3242 -79.3967 18° North 405 466 27,000 365 Climbing Washington Center
Mon 02:46:40 PM 34.4381 -79.3539 17° North 411 473 27,000  Level Washington Center
Mon 02:47:41 PM 34.5522 -79.3089 18° North 417 480 27,000  Level Washington Center
Mon 02:48:42 PM 34.6644 -79.3239 354° North 405 466 27,000  Level Washington Center
Mon 02:49:40 PM 34.7672 -79.3742 338° Northwest 398 458 27,000  Level Washington Center
Mon 02:50:40 PM 34.8697 -79.4272 337° Northwest 393 452 27,000  Level Washington Center
Mon 02:51:40 PM 34.9744 -79.4803 337° Northwest 399 459 27,000  Level Washington Center
Mon 02:52:41 PM 35.0814 -79.5311 339° North 411 473 27,000  Level Washington Center
Mon 02:53:41 PM 35.1881 -79.5819 339° North 411 473 27,000  Level Washington Center
Mon 02:54:40 PM 35.2928 -79.6331 338° Northwest 411 473 27,000  Level Washington Center
Mon 02:55:41 PM 35.4025 -79.6003 14° North 396 456 27,000  Level Washington Center
Mon 02:56:41 PM 35.4528 -79.4628 66° East 347 399 27,000  Level Washington Center
Mon 02:57:40 PM 35.4997 -79.3042 70° East 392 451 27,000  Level Washington Center
Mon 02:58:40 PM 35.5436 -79.1606 69° East 420 483 27,000  Level Washington Center
Mon 02:59:41 PM 35.5950 -79.0431 62° Northeast 432 497 27,000  Level Washington Center
Mon 03:00:41 PM 35.7100 -78.9636 29° Northeast 414 476 27,000  Level Washington Center
Mon 03:01:41 PM 35.8203 -78.8992 25° Northeast 419 482 27,000  Level Washington Center
Mon 03:02:42 PM 35.9328 -78.8344 25° Northeast 425 489 27,000  Level Washington Center
Mon 03:03:42 PM 36.0389 -78.7669 27° Northeast 431 496 27,000  Level Washington Center
Mon 03:04:40 PM 36.1469 -78.7019 26° Northeast 437 503 27,000  Level Washington Center
Mon 03:05:40 PM 36.2594 -78.6317 27° Northeast 431 496 27,000  Level Washington Center
Mon 03:06:42 PM 36.3739 -78.5586 27° Northeast 441 507 27,000  Level Washington Center
Mon 03:07:42 PM 36.4883 -78.4881 26° Northeast 451 519 27,000  Level Washington Center
Mon 03:08:40 PM 36.6089 -78.4150 26° Northeast 462 532 27,000 -403 Level Washington Center
Mon 03:09:41 PM 36.7297 -78.3339 28° Northeast 475 547 26,200 -744 Descending Washington Center
Mon 03:10:41 PM 36.8567 -78.2578 26° Northeast 486 559 25,500 -706 Descending Washington Center
Mon 03:11:40 PM 36.9772 -78.1789 28° Northeast 486 559 24,800 -706 Descending Washington Center
Mon 03:12:40 PM 37.0936 -78.1072 26° Northeast 479 551 24,100 -694 Descending Washington Center
Mon 03:13:41 PM 37.2097 -78.0328 27° Northeast 467 537 23,400 -689 Descending Washington Center
Mon 03:14:42 PM 37.3239 -77.9581 27° Northeast 461 531 22,700 -706 Descending Washington Center
Mon 03:15:40 PM 37.4358 -77.8883 26° Northeast 456 525 22,000 -403 Descending Washington Center
Mon 03:16:41 PM 37.5456 -77.8183 27° Northeast 451 519 21,900 -1,033 Descending Washington Center
Mon 03:17:42 PM 37.6575 -77.7533 25° Northeast 446 513 19,900 -2,033 Descending Washington Center
Mon 03:18:42 PM 37.7606 -77.6931 25° Northeast 427 491 17,800 -2,085 Descending Washington Center
Mon 03:19:40 PM 37.8575 -77.6353 25° Northeast 397 457 15,800 -2,050 Descending Washington Center
Mon 03:20:42 PM 37.9525 -77.5800 25° Northeast 376 433 13,700 -2,066 Descending Washington Center
Mon 03:21:42 PM 38.0492 -77.5272 23° Northeast 371 427 11,600 -1,850 Descending Washington Center
Mon 03:22:42 PM 38.1397 -77.4714 26° Northeast 366 421 10,000 -814 Descending Washington Center
Mon 03:23:40 PM 38.2175 -77.4286 23° Northeast 334 384 10,000 -403 Level Washington Center
Mon 03:24:41 PM 38.2950 -77.4039 14° North 302 348 9,200 -984 Descending Washington Center
Mon 03:25:42 PM 38.3744 -77.3925 North 286 329 8,000 -1,210 Descending Washington Center
Mon 03:26:40 PM 38.4497 -77.3839 North 281 323 6,800 -1,210 Descending Washington Center
Mon 03:27:41 PM 38.5269 -77.3750 North 276 318 5,600 -885 Descending Washington Center
Mon 03:28:42 PM 38.5939 -77.3661 North 264 304 5,000 -595 Descending Washington Center
Mon 03:29:32 PM 38.6500 -77.3667 360° North 237 273 4,500 -545 Descending Potomac TRACON
Mon 03:30:32 PM 38.7167 -77.3667 360° North 237 273 4,000 -248 Descending Potomac TRACON
Mon 03:31:33 PM 38.7833 -77.3500 11° North 243 280 4,000  Level Potomac TRACON
Mon 03:32:33 PM 38.8500 -77.3500 360° North 242 278 4,000  Level Potomac TRACON
Mon 03:33:33 PM 38.9167 -77.3500 360° North 223 257 4,000  Level Potomac TRACON
Mon 03:34:33 PM 38.9833 -77.3500 360° North 227 261 4,000  Level Potomac TRACON
Mon 03:35:33 PM 39.0333 -77.3500 360° North 212 244 4,000  Level Potomac TRACON
Mon 03:36:27 PM 39.1000 -77.3500 360° North 221 254 4,000 -316 Level Potomac TRACON
Mon 03:37:27 PM 39.1500 -77.3500 360° North 196 226 3,400 -500 Descending Potomac TRACON
Mon 03:38:27 PM 39.2000 -77.3500 360° North 198 228 3,000 -211 Descending Potomac TRACON
Mon 03:39:21 PM 39.2000 -77.4000 270° West 190 219 3,000 -172 Level Potomac TRACON
Mon 03:41:21 PM 39.1333 -77.4333 201° Southwest 137 158 2,500 -166 Descending Potomac TRACON
Mon 03:42:22 PM 39.1000 -77.4333 180° South 138 159 2,500 -50 Level Potomac TRACON
Mon 03:43:21 PM 39.0500 -77.4333 180° South 153 176 2,400 -500 Descending Potomac TRACON
Mon 03:44:22 PM 39.0167 -77.4333 180° South 137 158 1,500 -793 Descending Potomac TRACON
Mon 03:45:22 PM 38.9833 -77.4333 180° South 143 165 800 -700 Descending Potomac TRACON
Mon 03:47:00 PM 38.9474 -77.4599 195° South  Level Estimated

Login

Don't have an account? Register now (free) for customized features, flight alerts, and more!